Time;durP1;ratioP1;P1;durP2;ratioP2;P2;SDS_P1;SDS_P2;PMS_P1;PMS_P2;Temp;Humidity;BMP_temperature;BMP_pressure;BME280_temperature;BME280_humidity;BME280_pressure;Samples;Min_cycle;Max_cycle;Signal;HPM_P1;HPM_P2
2024/03/12 00:02:02;;;;;;;7.95;3.83;;;;;;;13.21;100.00;96812.31;4961484;28;20150;-76
2024/03/12 00:04:40;;;;;;;7.27;3.30;;;;;;;13.24;100.00;96810.22;4950840;28;20043;-76
2024/03/12 00:07:26;;;;;;;6.40;3.47;;;;;;;13.30;100.00;96838.41;4935040;29;20203;-76
2024/03/12 00:10:01;;;;;;;12.60;3.85;;;;;;;13.28;100.00;96829.63;4970382;28;20027;-77
2024/03/12 00:12:30;;;;;;;6.97;3.50;;;;;;;13.25;100.00;96829.88;4962132;28;20034;-76
2024/03/12 00:15:00;;;;;;;5.43;3.05;;;;;;;13.26;100.00;96837.78;4950999;28;20043;-76
2024/03/12 00:17:29;;;;;;;5.05;2.75;;;;;;;13.30;100.00;96844.63;4954058;28;20057;-75
2024/03/12 00:20:17;;;;;;;5.55;2.30;;;;;;;13.23;100.00;96832.69;4969687;28;20414;-77
2024/03/12 00:22:53;;;;;;;4.85;2.40;;;;;;;13.05;100.00;96864.59;4973514;28;20030;-76
2024/03/12 00:25:22;;;;;;;5.28;2.35;;;;;;;12.89;100.00;96872.19;4967535;28;20046;-76
2024/03/12 00:27:55;;;;;;;3.30;2.30;;;;;;;12.63;100.00;96869.94;4954028;28;20125;-75
2024/03/12 00:30:25;;;;;;;6.93;2.58;;;;;;;12.48;100.00;96899.72;4940017;29;20027;-76
2024/03/12 00:33:08;;;;;;;;;;;;;;;;;;;;;
2024/03/12 00:35:38;;;;;;;0.40;0.40;;;;;;;11.78;100.00;96899.00;4954500;28;20395;-76
2024/03/12 00:38:16;;;;;;;0.03;0.03;;;;;;;11.43;100.00;96877.59;4942734;28;20537;-75
2024/03/12 00:41:08;;;;;;;0.10;0.10;;;;;;;11.11;100.00;96876.47;4939635;28;20103;-75
2024/03/12 00:43:46;;;;;;;0.08;0.08;;;;;;;10.76;100.00;96873.75;4955124;28;20037;-76
2024/03/12 00:46:21;;;;;;;0.45;0.20;;;;;;;10.50;100.00;96879.28;4967398;28;20026;-76
2024/03/12 00:49:09;;;;;;;0.00;0.00;;;;;;;10.45;100.00;96886.78;4957510;28;20031;-76
2024/03/12 00:52:12;;;;;;;0.00;0.00;;;;;;;10.33;100.00;96883.19;4931955;28;20419;-75
2024/03/12 00:55:04;;;;;;;0.73;0.50;;;;;;;10.30;100.00;96870.84;4969621;28;20051;-77
2024/03/12 00:57:38;;;;;;;0.00;0.00;;;;;;;10.24;100.00;96875.81;4953960;28;20118;-77
2024/03/12 01:00:25;;;;;;;0.10;0.10;;;;;;;10.22;100.00;96880.41;4957007;28;20361;-75
2024/03/12 01:03:26;;;;;;;0.40;0.40;;;;;;;10.27;100.00;96871.09;4972893;28;20038;-75
2024/03/12 01:05:56;;;;;;;0.63;0.50;;;;;;;10.30;100.00;96899.44;4970508;28;20034;-76
2024/03/12 01:08:39;;;;;;;0.00;0.00;;;;;;;10.31;100.00;96907.31;4937648;28;20039;-75
2024/03/12 01:11:15;;;;;;;0.10;0.10;;;;;;;10.27;100.00;96919.19;4938503;28;20026;-76
2024/03/12 01:13:59;;;;;;;0.10;0.10;;;;;;;10.32;100.00;96919.75;4938417;29;20023;-77
2024/03/12 01:16:32;;;;;;;0.10;0.10;;;;;;;10.31;100.00;96922.50;4952404;28;20026;-76
2024/03/12 01:19:07;;;;;;;0.08;0.08;;;;;;;10.21;100.00;96930.31;4953384;28;20086;-77
2024/03/12 01:21:47;;;;;;;;;;;;;;;;;;;;;
2024/03/12 01:24:18;;;;;;;0.60;0.32;;;;;;;10.23;100.00;96943.59;4956369;28;20023;-77
2024/03/12 01:26:46;;;;;;;0.22;0.22;;;;;;;10.27;100.00;96931.72;4965822;28;20101;-77
2024/03/12 01:29:16;;;;;;;0.10;0.10;;;;;;;10.36;100.00;96925.72;4956073;28;20031;-77
2024/03/12 01:31:58;;;;;;;14.18;0.85;;;;;;;10.36;100.00;96914.19;4968313;28;20102;-76
2024/03/12 01:34:33;;;;;;;0.40;0.40;;;;;;;10.24;100.00;96910.56;4936843;28;20037;-77
2024/03/12 01:36:59;;;;;;;0.08;0.08;;;;;;;10.25;100.00;96914.94;4953348;28;20035;-77
2024/03/12 01:39:42;;;;;;;0.20;0.17;;;;;;;10.18;100.00;96911.00;4952809;28;20123;-77
2024/03/12 01:42:11;;;;;;;0.68;0.68;;;;;;;10.15;100.00;96908.53;4952843;28;20086;-77
2024/03/12 01:44:52;;;;;;;;;;;;;;;;;;;;;
2024/03/12 01:47:31;;;;;;;;;;;;;;;;;;;;;
2024/03/12 01:50:07;;;;;;;0.10;0.10;;;;;;;10.01;100.00;96930.84;4966475;28;20022;-76
2024/03/12 01:52:33;;;;;;;0.10;0.10;;;;;;;10.01;100.00;96927.31;4953801;28;20015;-77
2024/03/12 01:55:04;;;;;;;0.05;0.05;;;;;;;10.01;100.00;96924.63;4953585;28;20051;-76
2024/03/12 01:57:53;;;;;;;0.15;0.15;;;;;;;10.00;100.00;96905.06;4960601;28;20561;-76
2024/03/12 02:00:25;;;;;;;0.20;0.20;;;;;;;9.93;100.00;96895.81;4952404;28;20071;-76
2024/03/12 02:03:00;;;;;;;0.30;0.30;;;;;;;9.93;100.00;96885.13;4952585;28;20471;-76
2024/03/12 02:05:30;;;;;;;0.20;0.20;;;;;;;9.78;100.00;96859.47;4953413;28;20427;-76
2024/03/12 02:08:06;;;;;;;;;;;;;;;;;;;;;
2024/03/12 02:11:00;;;;;;;0.45;0.38;;;;;;;9.55;100.00;96799.66;4963529;28;20039;-76
2024/03/12 02:13:51;;;;;;;0.10;0.10;;;;;;;9.45;100.00;96771.03;4954174;28;20039;-77
2024/03/12 02:16:27;;;;;;;0.00;0.00;;;;;;;9.45;100.00;96776.38;4956249;28;20039;-76
2024/03/12 02:18:53;;;;;;;0.00;0.00;;;;;;;9.36;100.00;96772.53;4971458;28;20041;-75
2024/03/12 02:21:18;;;;;;;4.93;2.50;;;;;;;9.38;100.00;96780.44;4956079;28;20042;-76
2024/03/12 02:23:44;;;;;;;0.55;0.55;;;;;;;9.43;100.00;96788.97;4951877;28;20483;-76
2024/03/12 02:26:17;;;;;;;1.55;1.45;;;;;;;9.42;100.00;96792.59;4967436;28;20026;-76
2024/03/12 02:29:07;;;;;;;0.00;0.00;;;;;;;9.42;100.00;96785.44;4955448;28;20482;-76
2024/03/12 02:32:02;;;;;;;9.65;4.80;;;;;;;9.52;100.00;96799.88;4954078;28;20563;-76
2024/03/12 02:34:41;;;;;;;4.10;2.40;;;;;;;9.56;100.00;96809.38;4951844;28;20503;-75
2024/03/12 02:37:12;;;;;;;1.25;0.77;;;;;;;9.56;100.00;96795.19;4954941;28;20033;-75
2024/03/12 02:39:50;;;;;;;0.10;0.10;;;;;;;9.60;100.00;96804.66;4966428;28;20086;-75
2024/03/12 02:42:36;;;;;;;2.28;1.27;;;;;;;9.53;100.00;96782.03;4951929;28;20600;-75
2024/03/12 02:45:08;;;;;;;0.22;0.22;;;;;;;9.56;100.00;96787.16;4951877;28;20121;-76
2024/03/12 02:47:37;;;;;;;3.80;2.17;;;;;;;9.57;100.00;96780.84;4951490;28;20035;-76
2024/03/12 02:50:13;;;;;;;;;;;;;;;;;;;;;
2024/03/12 02:53:11;;;;;;;3.05;2.13;;;;;;;9.59;100.00;96778.94;4958248;28;20038;-75
2024/03/12 02:55:46;;;;;;;0.15;0.15;;;;;;;9.52;100.00;96749.16;4960639;28;20491;-75
2024/03/12 02:58:25;;;;;;;0.00;0.00;;;;;;;9.56;100.00;96731.09;4951879;28;20041;-77
2024/03/12 03:00:53;;;;;;;0.08;0.08;;;;;;;9.48;100.00;96718.28;4935341;28;20114;-76
2024/03/12 03:03:25;;;;;;;0.03;0.03;;;;;;;9.48;100.00;96718.28;4935581;29;20187;-75
2024/03/12 03:05:56;;;;;;;0.20;0.20;;;;;;;9.39;100.00;96724.28;4935635;28;20163;-75
2024/03/12 03:08:41;;;;;;;0.00;0.00;;;;;;;9.39;100.00;96734.09;4967150;28;20035;-76
2024/03/12 03:11:12;;;;;;;0.10;0.10;;;;;;;9.48;100.00;96738.78;4970875;28;20117;-76
2024/03/12 03:13:46;;;;;;;0.10;0.10;;;;;;;9.51;100.00;96747.44;4945237;28;20050;-75
2024/03/12 03:16:15;;;;;;;0.00;0.00;;;;;;;9.54;100.00;96749.03;4970570;28;20042;-76
2024/03/12 03:19:08;;;;;;;0.32;0.32;;;;;;;9.61;100.00;96753.84;4953874;28;20038;-77
2024/03/12 03:21:36;;;;;;;0.63;0.47;;;;;;;9.60;100.00;96754.78;4968112;28;20117;-75
2024/03/12 03:24:09;;;;;;;0.32;0.32;;;;;;;9.60;100.00;96753.94;4970471;28;20031;-76
2024/03/12 03:26:39;;;;;;;1.27;0.50;;;;;;;9.55;100.00;96746.28;4970535;28;20118;-74
2024/03/12 03:29:24;;;;;;;0.10;0.10;;;;;;;9.66;100.00;96746.34;4954717;28;20463;-76
2024/03/12 03:32:20;;;;;;;0.20;0.20;;;;;;;9.70;100.00;96750.53;4936801;28;20027;-75
2024/03/12 03:34:49;;;;;;;0.00;0.00;;;;;;;9.74;100.00;96743.16;4950537;28;20051;-75
2024/03/12 03:37:17;;;;;;;0.17;0.17;;;;;;;9.79;100.00;96743.66;4935214;29;20047;-77
2024/03/12 03:39:52;;;;;;;0.38;0.38;;;;;;;9.92;100.00;96747.16;4942903;28;20039;-76
2024/03/12 03:42:24;;;;;;;0.10;0.10;;;;;;;9.93;100.00;96738.19;4964084;28;20126;-77
2024/03/12 03:44:56;;;;;;;0.10;0.10;;;;;;;10.00;100.00;96731.41;4937696;28;20478;-76
2024/03/12 03:47:34;;;;;;;0.00;0.00;;;;;;;10.09;100.00;96714.72;4956673;28;20422;-75
2024/03/12 03:50:12;;;;;;;0.10;0.10;;;;;;;10.10;100.00;96713.75;4955367;28;20026;-77
2024/03/12 03:52:38;;;;;;;0.00;0.00;;;;;;;10.22;100.00;96709.34;4962376;28;20031;-77
2024/03/12 03:55:15;;;;;;;0.05;0.05;;;;;;;10.28;100.00;96706.22;4957909;28;20082;-76
2024/03/12 03:57:53;;;;;;;0.00;0.00;;;;;;;10.38;100.00;96706.41;4960526;28;20053;-76
2024/03/12 04:00:32;;;;;;;0.55;0.25;;;;;;;10.45;100.00;96718.34;4953933;28;20050;-76
2024/03/12 04:03:36;;;;;;;0.08;0.08;;;;;;;10.43;100.00;96704.25;4941595;28;20034;-77
2024/03/12 04:06:06;;;;;;;0.00;0.00;;;;;;;10.57;100.00;96704.06;4964633;28;20098;-76
2024/03/12 04:08:35;;;;;;;0.00;0.00;;;;;;;10.62;100.00;96696.53;4957836;28;20039;-75
2024/03/12 04:11:04;;;;;;;0.00;0.00;;;;;;;10.62;100.00;96697.41;4973609;28;20038;-76
2024/03/12 04:13:39;;;;;;;0.00;0.00;;;;;;;10.68;100.00;96696.06;4957491;28;20073;-76
2024/03/12 04:16:07;;;;;;;0.10;0.10;;;;;;;10.67;100.00;96689.03;4947765;28;20090;-75
2024/03/12 04:18:44;;;;;;;0.52;0.20;;;;;;;10.70;100.00;96689.66;4968434;28;20035;-76
2024/03/12 04:21:20;;;;;;;0.25;0.17;;;;;;;10.59;100.00;96689.59;4962820;28;20043;-77
2024/03/12 04:23:48;;;;;;;0.20;0.20;;;;;;;10.61;100.00;96684.97;4972585;28;20089;-75
2024/03/12 04:26:19;;;;;;;0.15;0.15;;;;;;;10.54;100.00;96688.25;4965573;28;20022;-77
2024/03/12 04:29:05;;;;;;;0.10;0.10;;;;;;;10.71;100.00;96701.19;4973373;28;20328;-76
2024/03/12 04:31:34;;;;;;;9.25;2.50;;;;;;;10.76;100.00;96704.38;4959848;28;20407;-76
2024/03/12 04:34:02;;;;;;;0.98;0.95;;;;;;;10.71;100.00;96693.16;4973192;28;20039;-77
2024/03/12 04:36:33;;;;;;;1.65;0.70;;;;;;;10.65;100.00;96712.34;4959414;28;20039;-76
2024/03/12 04:41:53;;;;;;;2.10;1.92;;;;;;;10.19;100.00;96721.13;4965622;28;20090;-77
2024/03/12 04:44:46;;;;;;;2.17;1.75;;;;;;;10.17;100.00;96723.06;4960549;28;20514;-77
2024/03/12 04:47:20;;;;;;;0.80;0.30;;;;;;;10.04;100.00;96722.22;4954895;28;20031;-77
2024/03/12 04:49:57;;;;;;;0.10;0.10;;;;;;;10.01;100.00;96725.13;4953754;28;20384;-76
2024/03/12 04:52:28;;;;;;;1.08;0.47;;;;;;;9.93;100.00;96730.19;4957167;28;20475;-76
2024/03/12 04:54:57;;;;;;;1.27;0.57;;;;;;;9.91;100.00;96737.44;4971993;28;20069;-77
2024/03/12 04:57:28;;;;;;;0.63;0.63;;;;;;;9.77;100.00;96743.78;4971667;28;20501;-76
2024/03/12 04:59:56;;;;;;;0.17;0.17;;;;;;;9.68;100.00;96733.75;4955578;28;20094;-76
2024/03/12 05:02:27;;;;;;;0.38;0.38;;;;;;;9.66;100.00;96742.81;4956638;28;20035;-76
2024/03/12 05:04:58;;;;;;;0.35;0.30;;;;;;;9.61;100.00;96740.50;4956923;28;20024;-76
2024/03/12 05:07:29;;;;;;;0.00;0.00;;;;;;;9.46;100.00;96738.06;4957309;28;20034;-76
2024/03/12 05:09:59;;;;;;;3.33;0.52;;;;;;;9.51;100.00;96738.56;4962231;28;20030;-76
2024/03/12 05:12:39;;;;;;;0.15;0.15;;;;;;;9.60;100.00;96744.13;4942579;28;20043;-77
2024/03/12 05:15:21;;;;;;;;;;;;;;;;;;;;;
2024/03/12 05:17:52;;;;;;;1.08;0.63;;;;;;;9.64;100.00;96740.28;4954809;28;20030;-76
2024/03/12 05:20:23;;;;;;;0.73;0.40;;;;;;;9.73;100.00;96750.31;4947788;28;20459;-73
2024/03/12 05:22:58;;;;;;;0.32;0.32;;;;;;;9.80;100.00;96743.56;4953259;28;20126;-77
2024/03/12 05:25:38;;;;;;;2.45;0.57;;;;;;;9.93;100.00;96743.53;4949527;28;20110;-75
2024/03/12 05:28:23;;;;;;;0.47;0.47;;;;;;;10.13;100.00;96742.97;4971596;28;20031;-76
2024/03/12 05:31:03;;;;;;;0.10;0.10;;;;;;;10.15;100.00;96733.00;4965224;28;20503;-76
2024/03/12 05:33:38;;;;;;;0.30;0.30;;;;;;;10.30;100.00;96734.53;4937930;29;20455;-76
2024/03/12 05:36:14;;;;;;;0.52;0.30;;;;;;;10.49;100.00;96736.72;4969997;28;20089;-77
2024/03/12 05:39:04;;;;;;;0.35;0.35;;;;;;;10.55;100.00;96733.56;4972286;28;20034;-75
2024/03/12 05:41:48;;;;;;;0.75;0.75;;;;;;;10.62;100.00;96736.66;4973595;28;20454;-76
2024/03/12 05:50:29;;;;;;;0.73;0.68;;;;;;;11.10;100.00;96735.63;4949535;28;20053;-76
2024/03/12 05:52:54;;;;;;;1.08;0.80;;;;;;;11.33;100.00;96740.03;4937513;29;20032;-75
2024/03/12 05:55:21;;;;;;;1.10;0.88;;;;;;;11.64;100.00;96740.28;4954192;28;20058;-76
2024/03/12 05:58:12;;;;;;;0.98;0.80;;;;;;;11.92;100.00;96731.81;4957762;28;20093;-75
2024/03/12 06:00:45;;;;;;;1.23;0.82;;;;;;;12.39;100.00;96717.22;4952595;28;20035;-76
2024/03/12 06:03:23;;;;;;;1.45;0.65;;;;;;;13.30;100.00;96712.16;4954532;28;20070;-76
2024/03/12 06:06:19;;;;;;;0.40;0.40;;;;;;;14.61;100.00;96699.50;4971833;28;20034;-77
2024/03/12 06:08:47;;;;;;;0.77;0.77;;;;;;;15.13;100.00;96685.56;4971500;28;20105;-75
2024/03/12 06:11:14;;;;;;;2.05;1.17;;;;;;;15.57;100.00;96684.09;4953257;28;20035;-76
2024/03/12 06:13:48;;;;;;;1.80;0.88;;;;;;;16.25;100.00;96679.22;4956961;28;20045;-77
2024/03/12 06:16:22;;;;;;;0.90;0.88;;;;;;;17.12;99.33;96665.94;4962273;28;20407;-76
2024/03/12 06:18:57;;;;;;;0.80;0.60;;;;;;;17.90;91.09;96674.94;4952651;28;20483;-76
2024/03/12 06:21:25;;;;;;;0.30;0.13;;;;;;;18.38;84.13;96669.72;4936571;28;20130;-76
2024/03/12 06:24:07;;;;;;;2.95;1.17;;;;;;;18.48;80.21;96669.56;4933176;29;20027;-76
2024/03/12 06:26:46;;;;;;;;;;;;;;;;;;;;;
2024/03/12 06:29:17;;;;;;;0.30;0.30;;;;;;;19.83;67.26;96661.69;4953112;28;20049;-77
2024/03/12 06:32:02;;;;;;;0.10;0.10;;;;;;;19.42;68.47;96670.91;4945263;28;20126;-75
2024/03/12 06:34:48;;;;;;;0.30;0.30;;;;;;;19.59;67.30;96675.31;4951818;28;20431;-74
2024/03/12 06:37:16;;;;;;;0.80;0.45;;;;;;;21.03;69.18;96680.28;4967644;28;20033;-76
2024/03/12 06:39:51;;;;;;;0.55;0.47;;;;;;;21.91;66.40;96675.13;4971065;28;20568;-76
2024/03/12 06:42:25;;;;;;;0.90;0.30;;;;;;;22.60;62.72;96673.78;4971217;28;20102;-77
2024/03/12 06:45:02;;;;;;;0.05;0.05;;;;;;;21.87;65.10;96677.34;4971435;28;20398;-75
2024/03/12 06:47:46;;;;;;;;;;;;;;;;;;;;;
2024/03/12 06:50:18;;;;;;;0.47;0.43;;;;;;;20.71;73.43;96694.09;4972057;28;20493;-76
2024/03/12 06:52:50;;;;;;;2.53;1.47;;;;;;;20.42;75.35;96692.03;4954921;28;20042;-75
2024/03/12 06:55:36;;;;;;;0.63;0.63;;;;;;;19.80;80.01;96702.75;4955255;28;20047;-75
2024/03/12 06:58:21;;;;;;;1.30;0.75;;;;;;;19.45;84.14;96714.81;4957855;28;20042;-76
2024/03/12 07:01:12;;;;;;;1.30;0.90;;;;;;;18.45;96.13;96719.50;4960417;28;20043;-76
2024/03/12 07:03:57;;;;;;;1.65;0.95;;;;;;;18.31;100.00;96725.53;4954996;28;20466;-76
2024/03/12 07:09:23;;;;;;;0.47;0.47;;;;;;;19.18;91.57;96728.69;4954899;28;20030;-77
2024/03/12 07:11:58;;;;;;;0.30;0.30;;;;;;;19.40;83.39;96706.34;4945946;28;20027;-76
2024/03/12 07:14:40;;;;;;;0.20;0.20;;;;;;;18.84;87.57;96709.81;4959175;28;20089;-76
2024/03/12 07:17:07;;;;;;;0.43;0.43;;;;;;;19.23;85.54;96709.19;4971781;28;20167;-77
2024/03/12 07:19:42;;;;;;;0.68;0.68;;;;;;;18.70;92.98;96715.06;4968762;28;20388;-74
2024/03/12 07:22:36;;;;;;;1.08;0.90;;;;;;;18.14;100.00;96727.34;4940550;29;20126;-75
2024/03/12 07:25:11;;;;;;;0.43;0.40;;;;;;;17.97;100.00;96747.19;4947260;28;20035;-75
2024/03/12 07:27:44;;;;;;;1.23;0.95;;;;;;;17.56;100.00;96748.78;4949754;28;20038;-76
2024/03/12 07:30:33;;;;;;;0.25;0.25;;;;;;;17.39;100.00;96746.91;4952374;28;20420;-76
2024/03/12 07:33:02;;;;;;;0.17;0.17;;;;;;;17.15;100.00;96758.38;4951521;28;20044;-76
2024/03/12 07:35:36;;;;;;;0.35;0.35;;;;;;;16.91;100.00;96757.28;4944109;28;20415;-76
2024/03/12 07:38:07;;;;;;;1.23;1.05;;;;;;;17.37;100.00;96759.75;4954592;28;20039;-76
2024/03/12 07:40:38;;;;;;;0.35;0.20;;;;;;;19.48;100.00;96746.16;4949663;28;20034;-75
2024/03/12 07:43:29;;;;;;;0.30;0.30;;;;;;;21.46;83.41;96719.63;4935402;29;20043;-75
2024/03/12 07:45:57;;;;;;;0.17;0.17;;;;;;;23.21;65.38;96703.28;4962594;28;20498;-75
2024/03/12 07:48:28;;;;;;;0.38;0.38;;;;;;;23.62;62.04;96698.03;4970680;28;20038;-74
2024/03/12 07:53:59;;;;;;;8.10;3.90;;;;;;;26.35;50.05;96675.63;4941836;28;20078;-75
2024/03/12 07:56:43;;;;;;;4.40;1.60;;;;;;;26.28;48.54;96680.28;4967050;28;20085;-74
2024/03/12 07:59:11;;;;;;;4.32;2.17;;;;;;;25.87;49.84;96677.78;4970098;28;20516;-76
2024/03/12 08:02:08;;;;;;;;;;;;;;;;;;;;;
2024/03/12 08:04:45;;;;;;;2.97;1.90;;;;;;;26.47;44.29;96672.22;4960304;28;20043;-76
2024/03/12 08:07:21;;;;;;;1.48;1.10;;;;;;;26.49;43.84;96664.63;4952043;28;20086;-77
2024/03/12 08:09:52;;;;;;;3.55;1.88;;;;;;;25.40;43.72;96660.66;4951870;28;20046;-77
2024/03/12 08:12:22;;;;;;;9.95;1.98;;;;;;;25.35;43.42;96662.13;4964145;28;20469;-76
2024/03/12 08:14:48;;;;;;;2.15;1.15;;;;;;;24.82;43.67;96654.03;4971147;28;20031;-75
2024/03/12 08:20:13;;;;;;;4.38;1.20;;;;;;;25.88;43.62;96654.78;4970479;28;20042;-74
2024/03/12 08:22:39;;;;;;;1.25;1.05;;;;;;;26.40;41.42;96655.78;4970449;28;20475;-77
2024/03/12 08:25:10;;;;;;;6.03;1.05;;;;;;;27.18;40.82;96651.88;4934762;29;20038;-75
2024/03/12 08:27:55;;;;;;;;;;;;;;;26.66;41.15;96658.44;4950959;28;20034;-76
2024/03/12 08:30:22;;;;;;;1.60;0.82;;;;;;;25.94;42.63;96661.31;4952896;28;19921;-75
2024/03/12 08:32:47;;;;;;;11.65;1.42;;;;;;;27.20;40.79;96652.47;4971108;28;20030;-76
2024/03/12 08:35:18;;;;;;;7.70;1.08;;;;;;;28.16;39.67;96643.94;4970723;28;20129;-76
2024/03/12 08:37:54;;;;;;;6.18;1.20;;;;;;;28.78;38.70;96643.69;4931157;28;20352;-74
2024/03/12 08:40:28;;;;;;;8.75;1.60;;;;;;;29.42;37.76;96631.97;4957816;28;20041;-74
2024/03/12 08:43:09;;;;;;;;;;;;;;;;;;;;;
2024/03/12 08:46:00;;;;;;;2.80;1.15;;;;;;;29.23;36.86;96623.97;4962988;28;20018;-75
2024/03/12 08:48:30;;;;;;;6.50;2.22;;;;;;;30.39;35.66;96633.34;4968137;28;20463;-75
2024/03/12 08:50:58;;;;;;;4.80;0.85;;;;;;;28.51;36.90;96615.63;4937654;28;20419;-75
2024/03/12 08:53:33;;;;;;;3.05;0.82;;;;;;;28.59;37.38;96616.34;4967522;28;20027;-75
2024/03/12 08:56:15;;;;;;;3.15;0.93;;;;;;;28.73;36.63;96615.16;4957658;28;20052;-75
2024/03/12 08:58:51;;;;;;;6.22;1.35;;;;;;;26.48;40.00;96630.03;4964735;28;20110;-77
2024/03/12 09:01:40;;;;;;;20.15;11.15;;;;;;;25.78;41.94;96634.34;4953578;28;20149;-75
2024/03/12 09:04:07;;;;;;;10.63;1.83;;;;;;;25.20;40.07;96620.41;4948097;28;20050;-75
2024/03/12 09:06:40;;;;;;;3.33;1.00;;;;;;;24.57;41.64;96623.59;4953609;28;20023;-76
2024/03/12 09:09:09;;;;;;;3.72;1.08;;;;;;;23.64;43.12;96629.56;4938227;28;20031;-75
2024/03/12 09:11:38;;;;;;;6.90;1.10;;;;;;;22.39;44.07;96630.13;4964452;28;20039;-75
2024/03/12 09:14:08;;;;;;;4.82;1.10;;;;;;;21.26;47.63;96639.50;4974013;28;20035;-75
2024/03/12 09:16:54;;;;;;;2.97;1.23;;;;;;;20.43;52.20;96652.97;4964294;28;20029;-74
2024/03/12 09:19:44;;;;;;;4.03;1.30;;;;;;;20.55;52.03;96654.25;4973858;28;20035;-74
2024/03/12 09:22:30;;;;;;;4.57;1.50;;;;;;;20.19;52.87;96647.63;4956917;28;20084;-76
2024/03/12 09:25:23;;;;;;;8.05;1.60;;;;;;;19.78;54.89;96653.19;4951746;28;20114;-76
2024/03/12 09:27:54;;;;;;;4.75;1.42;;;;;;;19.65;53.74;96660.19;4951095;28;20490;-76
2024/03/12 09:30:20;;;;;;;6.65;1.85;;;;;;;18.95;57.49;96652.56;4953243;28;20046;-76
2024/03/12 09:32:46;;;;;;;4.75;1.25;;;;;;;18.63;63.03;96657.97;4953259;28;20027;-75
2024/03/12 09:35:14;;;;;;;9.88;1.77;;;;;;;19.39;65.57;96665.78;4963325;28;20102;-77
2024/03/12 09:37:57;;;;;;;2.47;1.25;;;;;;;19.35;61.50;96653.56;4953588;28;20054;-75
2024/03/12 09:40:43;;;;;;;5.13;1.27;;;;;;;20.26;58.14;96638.63;4949296;28;20049;-76
2024/03/12 09:43:13;;;;;;;7.97;1.80;;;;;;;22.93;50.64;96622.38;4955565;28;20045;-77
2024/03/12 09:45:42;;;;;;;4.30;0.93;;;;;;;24.97;43.44;96587.13;4949093;29;20015;-76
2024/03/12 09:48:22;;;;;;;3.95;1.08;;;;;;;25.78;41.99;96598.72;4951996;28;20030;-77
2024/03/12 09:50:56;;;;;;;5.35;1.70;;;;;;;25.48;42.35;96595.56;4952999;28;20464;-76
2024/03/12 09:53:31;;;;;;;7.63;2.15;;;;;;;25.04;42.06;96598.09;4949234;28;20486;-75
2024/03/12 09:55:59;;;;;;;5.10;2.10;;;;;;;25.88;41.45;96590.91;4934024;28;20051;-75
2024/03/12 09:58:38;;;;;;;3.70;1.50;;;;;;;24.38;42.47;96591.53;4936797;29;20055;-75
2024/03/12 10:01:04;;;;;;;2.95;1.33;;;;;;;24.26;42.69;96594.03;4953437;28;20037;-74
2024/03/12 10:03:43;;;;;;;2.80;1.30;;;;;;;26.56;39.73;96594.09;4954963;28;20046;-75
2024/03/12 10:06:25;;;;;;;3.40;1.25;;;;;;;26.19;39.57;96582.00;4939232;28;20411;-75
2024/03/12 10:09:01;;;;;;;3.08;1.17;;;;;;;27.56;38.21;96579.56;4944773;28;20031;-75
2024/03/12 10:11:37;;;;;;;6.28;1.30;;;;;;;29.28;35.16;96561.63;4971539;28;20097;-76
2024/03/12 10:14:10;;;;;;;5.60;0.90;;;;;;;27.77;37.94;96573.66;4966949;28;20026;-76
2024/03/12 10:16:54;;;;;;;;;;;;;;;;;;;;;
2024/03/12 10:19:25;;;;;;;9.07;1.67;;;;;;;27.53;37.62;96575.38;4963201;28;20041;-76
2024/03/12 10:22:13;;;;;;;4.82;1.20;;;;;;;24.80;39.73;96567.47;4971142;28;20035;-76
2024/03/12 10:24:47;;;;;;;3.42;1.20;;;;;;;25.22;39.30;96563.56;4949176;28;20406;-76
2024/03/12 10:27:20;;;;;;;22.35;13.88;;;;;;;24.45;40.04;96559.59;4971393;28;20137;-76
2024/03/12 10:29:59;;;;;;;5.05;1.23;;;;;;;25.09;38.89;96555.34;4972685;28;20049;-75
2024/03/12 10:32:39;;;;;;;5.35;1.70;;;;;;;26.20;37.47;96550.78;4942563;28;20034;-76
2024/03/12 10:35:18;;;;;;;7.45;1.50;;;;;;;24.55;40.17;96549.94;4946781;28;20023;-76
2024/03/12 10:37:55;;;;;;;4.60;1.70;;;;;;;25.40;40.16;96549.22;4951822;28;20218;-76
2024/03/12 10:40:38;;;;;;;3.05;1.25;;;;;;;26.31;37.87;96531.75;4962379;28;20573;-76
2024/03/12 10:43:11;;;;;;;6.07;1.25;;;;;;;26.18;37.94;96537.28;4955045;28;20027;-76
2024/03/12 10:46:00;;;;;;;6.13;1.50;;;;;;;26.79;36.44;96523.06;4939666;29;20432;-75
2024/03/12 10:48:45;;;;;;;6.03;1.38;;;;;;;24.43;38.80;96517.94;4952788;28;20057;-76
2024/03/12 10:51:15;;;;;;;3.42;1.30;;;;;;;24.23;40.12;96529.69;4951756;28;20046;-75
2024/03/12 10:54:11;;;;;;;7.07;1.60;;;;;;;23.36;41.18;96516.75;4951732;28;20049;-74
2024/03/12 10:56:37;;;;;;;6.53;1.52;;;;;;;22.93;43.25;96527.75;4950857;28;20047;-76
2024/03/12 10:59:07;;;;;;;8.02;2.25;;;;;;;22.13;43.96;96538.84;4969926;28;20037;-74
2024/03/12 11:01:40;;;;;;;9.10;1.20;;;;;;;21.36;44.87;96533.97;4963069;28;20042;-74
2024/03/12 11:04:08;;;;;;;12.65;2.78;;;;;;;20.70;47.09;96542.94;4954793;28;20035;-75
2024/03/12 11:06:54;;;;;;;2.80;1.65;;;;;;;19.78;49.45;96550.06;4970523;28;20384;-74
2024/03/12 11:09:28;;;;;;;5.45;2.00;;;;;;;19.66;51.62;96559.59;4948000;29;20083;-75
2024/03/12 11:12:19;;;;;;;6.25;1.65;;;;;;;18.89;53.03;96566.53;4964427;28;20027;-74
2024/03/12 11:14:47;;;;;;;3.53;2.00;;;;;;;18.60;54.82;96555.38;4958046;28;20490;-76
2024/03/12 11:17:27;;;;;;;4.30;1.77;;;;;;;18.45;56.61;96575.97;4935277;28;20222;-75
2024/03/12 11:20:19;;;;;;;3.95;1.75;;;;;;;18.21;57.76;96570.53;4950405;28;20027;-76
2024/03/12 11:22:45;;;;;;;5.18;2.83;;;;;;;17.96;74.08;96587.69;4970624;28;20023;-74
2024/03/12 11:25:17;;;;;;;7.75;2.65;;;;;;;17.48;81.69;96588.28;4969198;28;20081;-75
2024/03/12 11:27:57;;;;;;;6.32;3.78;;;;;;;17.15;90.26;96598.91;4957297;28;20027;-74
2024/03/12 11:30:31;;;;;;;5.45;2.90;;;;;;;17.05;92.59;96603.56;4936674;28;20081;-76
2024/03/12 11:33:13;;;;;;;6.57;2.50;;;;;;;17.21;92.02;96597.44;4959181;28;20038;-77
2024/03/12 11:35:50;;;;;;;;;;;;;;;;;;;;;
2024/03/12 11:38:34;;;;;;;3.60;2.13;;;;;;;17.58;85.86;96603.44;4970403;28;20406;-75
2024/03/12 11:41:26;;;;;;;9.50;3.05;;;;;;;17.88;85.94;96602.03;4961951;28;20043;-76
2024/03/12 11:44:00;;;;;;;3.35;1.92;;;;;;;17.44;90.26;96617.53;4952914;28;20425;-76
2024/03/12 11:46:55;;;;;;;5.22;2.08;;;;;;;17.75;85.29;96594.38;4946788;28;20061;-76
2024/03/12 11:49:45;;;;;;;7.13;2.30;;;;;;;19.11;69.54;96586.66;4944840;28;20043;-76
2024/03/12 11:52:48;;;;;;;7.05;2.50;;;;;;;20.44;63.00;96571.28;4970443;28;20034;-74
2024/03/12 11:55:57;;;;;;;5.55;2.20;;;;;;;21.23;52.14;96555.53;4948161;28;20480;-76
2024/03/12 11:58:51;;;;;;;4.85;2.03;;;;;;;21.33;51.31;96540.66;4937286;28;20058;-75
2024/03/12 12:01:21;;;;;;;3.33;1.90;;;;;;;21.73;49.90;96524.88;4934404;28;20488;-72
2024/03/12 12:04:20;;;;;;;;;;;;;;;;;;;;;
2024/03/12 12:06:51;;;;;;;2.80;1.67;;;;;;;21.11;52.08;96527.09;4946887;28;20015;-73
2024/03/12 12:09:42;;;;;;;1.50;1.30;;;;;;;20.78;49.97;96519.22;4949864;28;20078;-71
2024/03/12 12:12:17;;;;;;;3.00;1.77;;;;;;;20.70;52.73;96524.75;4962262;28;20058;-72
2024/03/12 12:14:49;;;;;;;4.88;1.60;;;;;;;20.92;52.10;96523.00;4966682;28;20130;-72
2024/03/12 12:17:35;;;;;;;6.03;2.55;;;;;;;20.81;51.67;96528.88;4967786;28;20486;-72
2024/03/12 12:23:14;;;;;;;6.85;2.90;;;;;;;19.92;57.04;96540.34;4972467;28;20450;-72
2024/03/12 12:25:46;;;;;;;8.50;2.50;;;;;;;19.23;63.38;96555.47;4961137;28;20118;-70
2024/03/12 12:28:15;;;;;;;6.70;4.07;;;;;;;18.62;91.08;96583.13;4953006;28;20063;-72
2024/03/12 12:30:45;;;;;;;11.13;5.18;;;;;;;18.26;100.00;96597.94;4952674;28;20047;-72
2024/03/12 12:33:14;;;;;;;14.13;6.75;;;;;;;17.46;100.00;96625.47;4952820;28;20110;-71
2024/03/12 12:36:05;;;;;;;15.45;7.65;;;;;;;16.66;100.00;96635.50;4952748;28;20039;-70
2024/03/12 12:38:37;;;;;;;17.30;7.65;;;;;;;15.86;100.00;96648.06;4967366;28;20046;-71
2024/03/12 12:41:24;;;;;;;18.15;7.72;;;;;;;15.41;100.00;96662.25;4943842;28;20416;-71
2024/03/12 12:44:00;;;;;;;12.93;7.32;;;;;;;15.40;100.00;96667.81;4951427;28;20035;-70
2024/03/12 12:47:06;;;;;;;15.77;7.97;;;;;;;15.51;100.00;96671.19;4951446;28;20062;-71
2024/03/12 12:49:47;;;;;;;16.60;7.75;;;;;;;15.64;100.00;96669.03;4934913;28;20047;-71
2024/03/12 12:52:19;;;;;;;17.15;6.28;;;;;;;15.55;100.00;96661.84;4952406;28;20085;-71
2024/03/12 12:54:51;;;;;;;7.18;3.80;;;;;;;14.93;100.00;96661.50;4954151;28;20062;-72
2024/03/12 12:57:17;;;;;;;;;;;;;;;14.96;100.00;96678.22;4951704;28;20448;-71